sensor_id;sensor_type;location;lat;lon;timestamp;P1;durP1;ratioP1;P2;durP2;ratioP2
22166;SDS011;11249;52.468;13.776;2023-05-25T00:00:59;14.82;;;6.85;;
22166;SDS011;11249;52.468;13.776;2023-05-25T00:03:28;15.20;;;6.93;;
22166;SDS011;11249;52.468;13.776;2023-05-25T00:05:58;13.23;;;6.83;;
22166;SDS011;11249;52.468;13.776;2023-05-25T00:08:27;13.25;;;6.95;;
22166;SDS011;11249;52.468;13.776;2023-05-25T00:10:54;12.88;;;7.03;;
22166;SDS011;11249;52.468;13.776;2023-05-25T00:13:21;15.25;;;7.88;;
22166;SDS011;11249;52.468;13.776;2023-05-25T00:15:48;16.65;;;7.68;;
22166;SDS011;11249;52.468;13.776;2023-05-25T00:18:15;13.07;;;6.70;;
22166;SDS011;11249;52.468;13.776;2023-05-25T00:20:43;12.27;;;6.80;;
22166;SDS011;11249;52.468;13.776;2023-05-25T00:23:11;11.70;;;7.43;;
22166;SDS011;11249;52.468;13.776;2023-05-25T00:25:37;18.15;;;7.32;;
22166;SDS011;11249;52.468;13.776;2023-05-25T00:28:04;15.30;;;7.28;;
22166;SDS011;11249;52.468;13.776;2023-05-25T00:30:31;14.13;;;7.50;;
22166;SDS011;11249;52.468;13.776;2023-05-25T00:32:58;13.32;;;7.28;;
22166;SDS011;11249;52.468;13.776;2023-05-25T00:35:26;10.00;;;6.22;;
22166;SDS011;11249;52.468;13.776;2023-05-25T00:37:53;12.30;;;6.75;;
22166;SDS011;11249;52.468;13.776;2023-05-25T00:40:20;11.98;;;6.75;;
22166;SDS011;11249;52.468;13.776;2023-05-25T00:42:47;14.52;;;6.68;;
22166;SDS011;11249;52.468;13.776;2023-05-25T00:45:14;10.10;;;6.78;;
22166;SDS011;11249;52.468;13.776;2023-05-25T00:47:41;13.80;;;7.47;;
22166;SDS011;11249;52.468;13.776;2023-05-25T00:50:09;17.15;;;7.70;;
22166;SDS011;11249;52.468;13.776;2023-05-25T00:52:40;12.52;;;6.57;;
22166;SDS011;11249;52.468;13.776;2023-05-25T00:55:07;11.88;;;7.00;;
22166;SDS011;11249;52.468;13.776;2023-05-25T00:57:36;11.23;;;6.88;;
22166;SDS011;11249;52.468;13.776;2023-05-25T01:00:06;10.60;;;6.28;;
22166;SDS011;11249;52.468;13.776;2023-05-25T01:02:36;13.40;;;7.78;;
22166;SDS011;11249;52.468;13.776;2023-05-25T01:05:06;14.00;;;7.50;;
22166;SDS011;11249;52.468;13.776;2023-05-25T01:07:35;14.35;;;6.93;;
22166;SDS011;11249;52.468;13.776;2023-05-25T01:10:06;13.18;;;7.20;;
22166;SDS011;11249;52.468;13.776;2023-05-25T01:12:36;12.55;;;7.15;;
22166;SDS011;11249;52.468;13.776;2023-05-25T01:15:04;14.75;;;7.57;;
22166;SDS011;11249;52.468;13.776;2023-05-25T01:17:31;11.50;;;6.38;;
22166;SDS011;11249;52.468;13.776;2023-05-25T01:20:03;11.45;;;6.82;;
22166;SDS011;11249;52.468;13.776;2023-05-25T01:22:53;12.95;;;6.97;;
22166;SDS011;11249;52.468;13.776;2023-05-25T01:25:33;13.43;;;6.82;;
22166;SDS011;11249;52.468;13.776;2023-05-25T01:28:05;15.07;;;7.18;;
22166;SDS011;11249;52.468;13.776;2023-05-25T01:30:35;11.02;;;7.20;;
22166;SDS011;11249;52.468;13.776;2023-05-25T01:33:03;12.15;;;6.95;;
22166;SDS011;11249;52.468;13.776;2023-05-25T01:35:32;11.52;;;7.22;;
22166;SDS011;11249;52.468;13.776;2023-05-25T01:38:00;12.23;;;6.30;;
22166;SDS011;11249;52.468;13.776;2023-05-25T01:40:27;17.17;;;7.57;;
22166;SDS011;11249;52.468;13.776;2023-05-25T01:42:54;11.82;;;6.50;;
22166;SDS011;11249;52.468;13.776;2023-05-25T01:45:21;13.85;;;8.18;;
22166;SDS011;11249;52.468;13.776;2023-05-25T01:48:04;14.55;;;7.82;;
22166;SDS011;11249;52.468;13.776;2023-05-25T01:50:55;16.98;;;7.63;;
22166;SDS011;11249;52.468;13.776;2023-05-25T01:53:27;16.38;;;7.35;;
22166;SDS011;11249;52.468;13.776;2023-05-25T01:56:01;14.48;;;7.63;;
22166;SDS011;11249;52.468;13.776;2023-05-25T01:58:37;14.80;;;7.30;;
22166;SDS011;11249;52.468;13.776;2023-05-25T02:01:07;12.80;;;8.05;;
22166;SDS011;11249;52.468;13.776;2023-05-25T02:03:36;15.27;;;8.27;;
22166;SDS011;11249;52.468;13.776;2023-05-25T02:06:03;15.48;;;8.35;;
22166;SDS011;11249;52.468;13.776;2023-05-25T02:08:30;13.55;;;8.07;;
22166;SDS011;11249;52.468;13.776;2023-05-25T02:10:57;16.75;;;8.02;;
22166;SDS011;11249;52.468;13.776;2023-05-25T02:13:23;16.30;;;8.43;;
22166;SDS011;11249;52.468;13.776;2023-05-25T02:15:50;18.60;;;8.38;;
22166;SDS011;11249;52.468;13.776;2023-05-25T02:18:18;13.93;;;8.05;;
22166;SDS011;11249;52.468;13.776;2023-05-25T02:20:44;14.25;;;8.43;;
22166;SDS011;11249;52.468;13.776;2023-05-25T02:23:12;19.15;;;9.07;;
22166;SDS011;11249;52.468;13.776;2023-05-25T02:25:39;17.27;;;8.02;;
22166;SDS011;11249;52.468;13.776;2023-05-25T02:28:08;14.60;;;7.97;;
22166;SDS011;11249;52.468;13.776;2023-05-25T02:30:34;15.80;;;8.48;;
22166;SDS011;11249;52.468;13.776;2023-05-25T02:33:01;14.98;;;8.25;;
22166;SDS011;11249;52.468;13.776;2023-05-25T02:35:28;15.68;;;7.78;;
22166;SDS011;11249;52.468;13.776;2023-05-25T02:37:55;14.38;;;7.60;;
22166;SDS011;11249;52.468;13.776;2023-05-25T02:40:21;13.88;;;8.35;;
22166;SDS011;11249;52.468;13.776;2023-05-25T02:42:49;13.63;;;7.90;;
22166;SDS011;11249;52.468;13.776;2023-05-25T02:45:15;13.25;;;8.13;;
22166;SDS011;11249;52.468;13.776;2023-05-25T02:47:42;12.88;;;7.40;;
22166;SDS011;11249;52.468;13.776;2023-05-25T02:50:09;11.88;;;7.13;;
22166;SDS011;11249;52.468;13.776;2023-05-25T02:52:36;14.43;;;8.75;;
22166;SDS011;11249;52.468;13.776;2023-05-25T02:55:03;12.02;;;7.50;;
22166;SDS011;11249;52.468;13.776;2023-05-25T02:57:31;13.70;;;8.45;;
22166;SDS011;11249;52.468;13.776;2023-05-25T02:59:57;15.45;;;8.65;;
22166;SDS011;11249;52.468;13.776;2023-05-25T03:02:24;15.32;;;8.25;;
22166;SDS011;11249;52.468;13.776;2023-05-25T03:04:51;14.32;;;8.00;;
22166;SDS011;11249;52.468;13.776;2023-05-25T03:07:20;16.60;;;8.80;;
22166;SDS011;11249;52.468;13.776;2023-05-25T03:09:47;14.60;;;8.40;;
22166;SDS011;11249;52.468;13.776;2023-05-25T03:12:14;17.40;;;8.38;;
22166;SDS011;11249;52.468;13.776;2023-05-25T03:14:41;12.32;;;8.23;;
22166;SDS011;11249;52.468;13.776;2023-05-25T03:17:07;14.63;;;8.95;;
22166;SDS011;11249;52.468;13.776;2023-05-25T03:19:34;13.88;;;8.77;;
22166;SDS011;11249;52.468;13.776;2023-05-25T03:22:01;16.23;;;8.05;;
22166;SDS011;11249;52.468;13.776;2023-05-25T03:24:28;11.95;;;7.70;;
22166;SDS011;11249;52.468;13.776;2023-05-25T03:26:55;13.82;;;8.23;;
22166;SDS011;11249;52.468;13.776;2023-05-25T03:29:22;18.55;;;9.27;;
22166;SDS011;11249;52.468;13.776;2023-05-25T03:31:49;17.65;;;8.45;;
22166;SDS011;11249;52.468;13.776;2023-05-25T03:34:15;11.82;;;8.27;;
22166;SDS011;11249;52.468;13.776;2023-05-25T03:36:42;16.13;;;7.75;;
22166;SDS011;11249;52.468;13.776;2023-05-25T03:39:11;15.32;;;8.65;;
22166;SDS011;11249;52.468;13.776;2023-05-25T03:41:38;15.82;;;8.55;;
22166;SDS011;11249;52.468;13.776;2023-05-25T03:44:04;13.13;;;8.18;;
22166;SDS011;11249;52.468;13.776;2023-05-25T03:46:31;17.65;;;8.93;;
22166;SDS011;11249;52.468;13.776;2023-05-25T03:48:58;15.30;;;8.90;;
22166;SDS011;11249;52.468;13.776;2023-05-25T03:51:25;15.65;;;8.98;;
22166;SDS011;11249;52.468;13.776;2023-05-25T03:53:53;15.43;;;8.90;;
22166;SDS011;11249;52.468;13.776;2023-05-25T03:56:19;16.23;;;8.20;;
22166;SDS011;11249;52.468;13.776;2023-05-25T03:58:46;15.05;;;8.70;;
22166;SDS011;11249;52.468;13.776;2023-05-25T04:01:13;11.55;;;7.95;;
22166;SDS011;11249;52.468;13.776;2023-05-25T04:03:41;18.20;;;9.30;;
22166;SDS011;11249;52.468;13.776;2023-05-25T04:06:08;16.48;;;9.35;;
22166;SDS011;11249;52.468;13.776;2023-05-25T04:08:36;18.02;;;9.07;;
22166;SDS011;11249;52.468;13.776;2023-05-25T04:11:06;16.00;;;9.75;;
22166;SDS011;11249;52.468;13.776;2023-05-25T04:13:32;15.27;;;9.10;;
22166;SDS011;11249;52.468;13.776;2023-05-25T04:16:01;11.70;;;8.75;;
22166;SDS011;11249;52.468;13.776;2023-05-25T04:18:28;13.05;;;8.90;;
22166;SDS011;11249;52.468;13.776;2023-05-25T04:20:55;16.83;;;10.25;;
22166;SDS011;11249;52.468;13.776;2023-05-25T04:23:22;16.67;;;10.18;;
22166;SDS011;11249;52.468;13.776;2023-05-25T04:25:49;16.48;;;10.10;;
22166;SDS011;11249;52.468;13.776;2023-05-25T04:28:16;13.48;;;9.07;;
22166;SDS011;11249;52.468;13.776;2023-05-25T04:30:44;19.10;;;9.40;;
22166;SDS011;11249;52.468;13.776;2023-05-25T04:33:11;20.50;;;11.00;;
22166;SDS011;11249;52.468;13.776;2023-05-25T04:35:37;17.25;;;9.52;;
22166;SDS011;11249;52.468;13.776;2023-05-25T04:38:05;15.82;;;9.55;;
22166;SDS011;11249;52.468;13.776;2023-05-25T04:40:33;18.23;;;9.82;;
22166;SDS011;11249;52.468;13.776;2023-05-25T04:43:00;16.90;;;8.93;;
22166;SDS011;11249;52.468;13.776;2023-05-25T04:45:28;13.93;;;9.18;;
22166;SDS011;11249;52.468;13.776;2023-05-25T04:47:57;14.38;;;9.52;;
22166;SDS011;11249;52.468;13.776;2023-05-25T04:50:26;19.10;;;10.52;;
22166;SDS011;11249;52.468;13.776;2023-05-25T04:52:53;22.05;;;11.40;;
22166;SDS011;11249;52.468;13.776;2023-05-25T04:55:20;19.80;;;10.38;;
22166;SDS011;11249;52.468;13.776;2023-05-25T04:57:47;18.23;;;9.85;;
22166;SDS011;11249;52.468;13.776;2023-05-25T05:00:14;18.05;;;10.32;;
22166;SDS011;11249;52.468;13.776;2023-05-25T05:02:41;21.17;;;10.38;;
22166;SDS011;11249;52.468;13.776;2023-05-25T05:05:09;18.58;;;10.00;;
22166;SDS011;11249;52.468;13.776;2023-05-25T05:07:36;19.25;;;10.95;;
22166;SDS011;11249;52.468;13.776;2023-05-25T05:10:03;20.10;;;10.73;;
22166;SDS011;11249;52.468;13.776;2023-05-25T05:12:30;20.50;;;9.43;;
22166;SDS011;11249;52.468;13.776;2023-05-25T05:14:57;22.77;;;10.02;;
22166;SDS011;11249;52.468;13.776;2023-05-25T05:17:24;19.77;;;10.15;;
22166;SDS011;11249;52.468;13.776;2023-05-25T05:19:51;18.67;;;10.60;;
22166;SDS011;11249;52.468;13.776;2023-05-25T05:22:18;20.65;;;10.30;;
22166;SDS011;11249;52.468;13.776;2023-05-25T05:24:45;14.80;;;9.95;;
22166;SDS011;11249;52.468;13.776;2023-05-25T05:27:12;25.60;;;10.52;;
22166;SDS011;11249;52.468;13.776;2023-05-25T05:29:40;13.07;;;9.82;;
22166;SDS011;11249;52.468;13.776;2023-05-25T05:32:07;14.10;;;9.57;;
22166;SDS011;11249;52.468;13.776;2023-05-25T05:34:34;20.15;;;10.88;;
22166;SDS011;11249;52.468;13.776;2023-05-25T05:37:01;16.65;;;10.00;;
22166;SDS011;11249;52.468;13.776;2023-05-25T05:39:28;15.18;;;9.07;;
22166;SDS011;11249;52.468;13.776;2023-05-25T05:41:54;15.60;;;9.93;;
22166;SDS011;11249;52.468;13.776;2023-05-25T05:44:21;18.92;;;10.48;;
22166;SDS011;11249;52.468;13.776;2023-05-25T05:46:53;20.73;;;10.32;;
22166;SDS011;11249;52.468;13.776;2023-05-25T05:49:26;20.70;;;10.63;;
22166;SDS011;11249;52.468;13.776;2023-05-25T05:51:53;22.58;;;10.80;;
22166;SDS011;11249;52.468;13.776;2023-05-25T05:54:20;22.77;;;10.90;;
22166;SDS011;11249;52.468;13.776;2023-05-25T05:56:47;16.20;;;9.93;;
22166;SDS011;11249;52.468;13.776;2023-05-25T05:59:14;17.88;;;10.23;;
22166;SDS011;11249;52.468;13.776;2023-05-25T06:01:41;17.48;;;10.43;;
22166;SDS011;11249;52.468;13.776;2023-05-25T06:04:08;15.98;;;9.23;;
22166;SDS011;11249;52.468;13.776;2023-05-25T06:06:35;20.23;;;10.55;;
22166;SDS011;11249;52.468;13.776;2023-05-25T06:09:03;15.65;;;8.93;;
22166;SDS011;11249;52.468;13.776;2023-05-25T06:11:35;21.60;;;10.50;;
22166;SDS011;11249;52.468;13.776;2023-05-25T06:14:02;22.92;;;10.63;;
22166;SDS011;11249;52.468;13.776;2023-05-25T06:16:29;17.45;;;10.27;;
22166;SDS011;11249;52.468;13.776;2023-05-25T06:18:56;17.55;;;9.82;;
22166;SDS011;11249;52.468;13.776;2023-05-25T06:21:23;22.35;;;10.30;;
22166;SDS011;11249;52.468;13.776;2023-05-25T06:23:50;17.55;;;10.45;;
22166;SDS011;11249;52.468;13.776;2023-05-25T06:26:16;18.52;;;9.63;;
22166;SDS011;11249;52.468;13.776;2023-05-25T06:28:43;17.55;;;9.43;;
22166;SDS011;11249;52.468;13.776;2023-05-25T06:31:11;19.48;;;10.57;;
22166;SDS011;11249;52.468;13.776;2023-05-25T06:33:38;18.77;;;9.63;;
22166;SDS011;11249;52.468;13.776;2023-05-25T06:36:05;18.80;;;9.00;;
22166;SDS011;11249;52.468;13.776;2023-05-25T06:38:32;23.92;;;9.85;;
22166;SDS011;11249;52.468;13.776;2023-05-25T06:40:59;14.68;;;9.05;;
22166;SDS011;11249;52.468;13.776;2023-05-25T06:43:28;21.55;;;8.52;;
22166;SDS011;11249;52.468;13.776;2023-05-25T06:45:57;18.20;;;8.30;;
22166;SDS011;11249;52.468;13.776;2023-05-25T06:48:24;18.88;;;7.18;;
22166;SDS011;11249;52.468;13.776;2023-05-25T06:50:50;17.83;;;6.22;;
22166;SDS011;11249;52.468;13.776;2023-05-25T06:53:17;11.55;;;5.68;;
22166;SDS011;11249;52.468;13.776;2023-05-25T06:55:44;15.45;;;6.35;;
22166;SDS011;11249;52.468;13.776;2023-05-25T06:58:11;14.90;;;6.07;;
22166;SDS011;11249;52.468;13.776;2023-05-25T07:00:38;11.60;;;5.07;;
22166;SDS011;11249;52.468;13.776;2023-05-25T07:03:05;11.90;;;5.82;;
22166;SDS011;11249;52.468;13.776;2023-05-25T07:05:32;15.32;;;5.60;;
22166;SDS011;11249;52.468;13.776;2023-05-25T07:07:58;14.10;;;5.90;;
22166;SDS011;11249;52.468;13.776;2023-05-25T07:10:25;10.55;;;4.68;;
22166;SDS011;11249;52.468;13.776;2023-05-25T07:12:52;14.52;;;5.20;;
22166;SDS011;11249;52.468;13.776;2023-05-25T07:15:18;11.23;;;4.97;;
22166;SDS011;11249;52.468;13.776;2023-05-25T07:17:47;15.40;;;6.05;;
22166;SDS011;11249;52.468;13.776;2023-05-25T07:20:13;14.20;;;5.78;;
22166;SDS011;11249;52.468;13.776;2023-05-25T07:22:40;17.27;;;5.40;;
22166;SDS011;11249;52.468;13.776;2023-05-25T07:25:08;11.77;;;5.00;;
22166;SDS011;11249;52.468;13.776;2023-05-25T07:27:35;15.00;;;4.85;;
22166;SDS011;11249;52.468;13.776;2023-05-25T07:30:05;11.32;;;4.63;;
22166;SDS011;11249;52.468;13.776;2023-05-25T07:32:32;15.65;;;5.07;;
22166;SDS011;11249;52.468;13.776;2023-05-25T07:34:59;12.63;;;4.15;;
22166;SDS011;11249;52.468;13.776;2023-05-25T07:37:26;10.65;;;3.90;;
22166;SDS011;11249;52.468;13.776;2023-05-25T07:39:53;16.17;;;4.00;;
22166;SDS011;11249;52.468;13.776;2023-05-25T07:42:20;14.75;;;5.00;;
22166;SDS011;11249;52.468;13.776;2023-05-25T07:44:47;15.07;;;4.22;;
22166;SDS011;11249;52.468;13.776;2023-05-25T07:47:13;12.65;;;4.40;;
22166;SDS011;11249;52.468;13.776;2023-05-25T07:49:40;11.57;;;4.15;;
22166;SDS011;11249;52.468;13.776;2023-05-25T07:52:07;17.02;;;4.53;;
22166;SDS011;11249;52.468;13.776;2023-05-25T07:54:34;12.32;;;4.35;;
22166;SDS011;11249;52.468;13.776;2023-05-25T07:57:05;13.05;;;4.22;;
22166;SDS011;11249;52.468;13.776;2023-05-25T07:59:33;10.85;;;4.57;;
22166;SDS011;11249;52.468;13.776;2023-05-25T08:02:00;11.52;;;3.97;;
22166;SDS011;11249;52.468;13.776;2023-05-25T08:04:27;13.35;;;4.70;;
22166;SDS011;11249;52.468;13.776;2023-05-25T08:06:54;11.77;;;4.68;;
22166;SDS011;11249;52.468;13.776;2023-05-25T08:09:20;12.00;;;4.38;;
22166;SDS011;11249;52.468;13.776;2023-05-25T08:11:47;11.43;;;4.60;;
22166;SDS011;11249;52.468;13.776;2023-05-25T08:14:14;12.52;;;3.97;;
22166;SDS011;11249;52.468;13.776;2023-05-25T08:16:42;12.85;;;4.35;;
22166;SDS011;11249;52.468;13.776;2023-05-25T08:19:08;14.35;;;4.63;;
22166;SDS011;11249;52.468;13.776;2023-05-25T08:21:35;13.18;;;3.95;;
22166;SDS011;11249;52.468;13.776;2023-05-25T08:24:03;15.50;;;4.35;;
22166;SDS011;11249;52.468;13.776;2023-05-25T08:26:30;13.20;;;4.55;;
22166;SDS011;11249;52.468;13.776;2023-05-25T08:29:17;9.88;;;3.50;;
22166;SDS011;11249;52.468;13.776;2023-05-25T08:31:44;12.15;;;4.30;;
22166;SDS011;11249;52.468;13.776;2023-05-25T08:34:14;8.85;;;3.60;;
22166;SDS011;11249;52.468;13.776;2023-05-25T08:36:44;11.85;;;3.40;;
22166;SDS011;11249;52.468;13.776;2023-05-25T08:39:11;13.52;;;4.53;;
22166;SDS011;11249;52.468;13.776;2023-05-25T08:41:40;12.80;;;4.13;;
22166;SDS011;11249;52.468;13.776;2023-05-25T08:44:09;9.57;;;3.70;;
22166;SDS011;11249;52.468;13.776;2023-05-25T08:46:36;9.52;;;4.07;;
22166;SDS011;11249;52.468;13.776;2023-05-25T08:49:04;9.57;;;3.78;;
22166;SDS011;11249;52.468;13.776;2023-05-25T08:51:41;10.18;;;4.18;;
22166;SDS011;11249;52.468;13.776;2023-05-25T08:54:13;12.57;;;3.80;;
22166;SDS011;11249;52.468;13.776;2023-05-25T08:59:24;13.00;;;4.18;;
22166;SDS011;11249;52.468;13.776;2023-05-25T09:02:01;8.70;;;4.80;;
22166;SDS011;11249;52.468;13.776;2023-05-25T09:04:31;10.65;;;3.80;;
22166;SDS011;11249;52.468;13.776;2023-05-25T09:06:59;11.50;;;4.82;;
22166;SDS011;11249;52.468;13.776;2023-05-25T09:09:36;16.10;;;4.65;;
22166;SDS011;11249;52.468;13.776;2023-05-25T09:12:04;11.23;;;4.00;;
22166;SDS011;11249;52.468;13.776;2023-05-25T09:14:32;11.35;;;4.35;;
22166;SDS011;11249;52.468;13.776;2023-05-25T09:16:59;13.52;;;4.05;;
22166;SDS011;11249;52.468;13.776;2023-05-25T09:19:26;13.73;;;4.25;;
22166;SDS011;11249;52.468;13.776;2023-05-25T09:21:53;9.15;;;3.90;;
22166;SDS011;11249;52.468;13.776;2023-05-25T09:24:39;15.40;;;5.10;;
22166;SDS011;11249;52.468;13.776;2023-05-25T09:27:09;12.55;;;4.60;;
22166;SDS011;11249;52.468;13.776;2023-05-25T09:29:37;11.75;;;4.35;;
22166;SDS011;11249;52.468;13.776;2023-05-25T09:32:04;12.43;;;4.45;;
22166;SDS011;11249;52.468;13.776;2023-05-25T09:34:32;12.38;;;4.72;;
22166;SDS011;11249;52.468;13.776;2023-05-25T09:37:02;11.63;;;4.95;;
22166;SDS011;11249;52.468;13.776;2023-05-25T09:39:30;10.88;;;4.35;;
22166;SDS011;11249;52.468;13.776;2023-05-25T09:41:57;10.38;;;4.50;;
22166;SDS011;11249;52.468;13.776;2023-05-25T09:44:23;11.35;;;4.57;;
22166;SDS011;11249;52.468;13.776;2023-05-25T09:46:52;11.65;;;4.65;;
22166;SDS011;11249;52.468;13.776;2023-05-25T09:49:18;12.98;;;5.13;;
22166;SDS011;11249;52.468;13.776;2023-05-25T09:51:46;13.18;;;4.32;;
22166;SDS011;11249;52.468;13.776;2023-05-25T09:54:27;10.32;;;4.55;;
22166;SDS011;11249;52.468;13.776;2023-05-25T09:56:54;10.88;;;4.30;;
22166;SDS011;11249;52.468;13.776;2023-05-25T09:59:21;10.55;;;3.75;;
22166;SDS011;11249;52.468;13.776;2023-05-25T10:01:51;7.00;;;3.67;;
22166;SDS011;11249;52.468;13.776;2023-05-25T10:04:20;12.18;;;4.95;;
22166;SDS011;11249;52.468;13.776;2023-05-25T10:06:47;10.25;;;4.22;;
22166;SDS011;11249;52.468;13.776;2023-05-25T10:09:17;15.40;;;4.68;;
22166;SDS011;11249;52.468;13.776;2023-05-25T10:11:45;11.50;;;4.53;;
22166;SDS011;11249;52.468;13.776;2023-05-25T10:14:19;11.38;;;4.38;;
22166;SDS011;11249;52.468;13.776;2023-05-25T10:16:54;9.15;;;4.47;;
22166;SDS011;11249;52.468;13.776;2023-05-25T10:19:24;9.20;;;4.05;;
22166;SDS011;11249;52.468;13.776;2023-05-25T10:22:01;8.85;;;3.60;;
22166;SDS011;11249;52.468;13.776;2023-05-25T10:24:34;10.02;;;3.78;;
22166;SDS011;11249;52.468;13.776;2023-05-25T10:27:15;9.02;;;4.80;;
22166;SDS011;11249;52.468;13.776;2023-05-25T10:29:50;11.15;;;4.63;;
22166;SDS011;11249;52.468;13.776;2023-05-25T10:32:18;9.45;;;4.68;;
22166;SDS011;11249;52.468;13.776;2023-05-25T10:34:45;12.90;;;4.97;;
22166;SDS011;11249;52.468;13.776;2023-05-25T10:37:13;11.40;;;4.65;;
22166;SDS011;11249;52.468;13.776;2023-05-25T10:39:41;11.32;;;4.15;;
22166;SDS011;11249;52.468;13.776;2023-05-25T10:44:41;11.50;;;4.13;;
22166;SDS011;11249;52.468;13.776;2023-05-25T10:47:08;10.45;;;4.90;;
22166;SDS011;11249;52.468;13.776;2023-05-25T10:49:49;10.95;;;4.57;;
22166;SDS011;11249;52.468;13.776;2023-05-25T10:52:20;10.75;;;4.45;;
22166;SDS011;11249;52.468;13.776;2023-05-25T10:54:53;8.85;;;4.18;;
22166;SDS011;11249;52.468;13.776;2023-05-25T10:57:21;12.02;;;5.13;;
22166;SDS011;11249;52.468;13.776;2023-05-25T10:59:50;13.85;;;5.18;;
22166;SDS011;11249;52.468;13.776;2023-05-25T11:04:50;14.23;;;4.35;;
22166;SDS011;11249;52.468;13.776;2023-05-25T11:07:55;8.27;;;4.45;;
22166;SDS011;11249;52.468;13.776;2023-05-25T11:13:23;10.20;;;4.25;;
22166;SDS011;11249;52.468;13.776;2023-05-25T11:16:12;9.50;;;4.07;;
22166;SDS011;11249;52.468;13.776;2023-05-25T11:18:40;10.20;;;4.40;;
22166;SDS011;11249;52.468;13.776;2023-05-25T11:21:15;10.60;;;3.97;;
22166;SDS011;11249;52.468;13.776;2023-05-25T11:23:56;11.68;;;4.15;;
22166;SDS011;11249;52.468;13.776;2023-05-25T11:26:26;10.05;;;4.10;;
22166;SDS011;11249;52.468;13.776;2023-05-25T11:31:27;8.20;;;4.15;;
22166;SDS011;11249;52.468;13.776;2023-05-25T11:34:04;8.80;;;4.13;;
22166;SDS011;11249;52.468;13.776;2023-05-25T11:36:35;9.18;;;4.88;;
22166;SDS011;11249;52.468;13.776;2023-05-25T11:41:45;11.48;;;5.13;;
22166;SDS011;11249;52.468;13.776;2023-05-25T11:44:28;10.15;;;4.82;;
22166;SDS011;11249;52.468;13.776;2023-05-25T11:46:56;13.90;;;4.90;;
22166;SDS011;11249;52.468;13.776;2023-05-25T11:49:27;9.32;;;4.95;;
22166;SDS011;11249;52.468;13.776;2023-05-25T11:51:55;12.18;;;4.97;;
22166;SDS011;11249;52.468;13.776;2023-05-25T11:54:26;9.50;;;4.95;;
22166;SDS011;11249;52.468;13.776;2023-05-25T11:56:54;6.80;;;4.55;;
22166;SDS011;11249;52.468;13.776;2023-05-25T11:59:24;8.25;;;4.57;;
22166;SDS011;11249;52.468;13.776;2023-05-25T12:01:58;13.13;;;4.95;;
22166;SDS011;11249;52.468;13.776;2023-05-25T12:04:26;10.75;;;5.05;;
22166;SDS011;11249;52.468;13.776;2023-05-25T12:07:01;10.10;;;5.25;;
22166;SDS011;11249;52.468;13.776;2023-05-25T12:09:31;11.15;;;5.35;;
22166;SDS011;11249;52.468;13.776;2023-05-25T12:11:59;8.52;;;4.82;;
22166;SDS011;11249;52.468;13.776;2023-05-25T12:14:28;14.98;;;5.25;;
22166;SDS011;11249;52.468;13.776;2023-05-25T12:16:55;12.57;;;5.68;;
22166;SDS011;11249;52.468;13.776;2023-05-25T12:19:23;11.23;;;5.13;;
22166;SDS011;11249;52.468;13.776;2023-05-25T12:21:50;10.10;;;4.85;;
22166;SDS011;11249;52.468;13.776;2023-05-25T12:24:17;15.77;;;5.22;;
22166;SDS011;11249;52.468;13.776;2023-05-25T12:26:48;7.60;;;4.78;;
22166;SDS011;11249;52.468;13.776;2023-05-25T12:29:15;11.27;;;5.10;;
22166;SDS011;11249;52.468;13.776;2023-05-25T12:31:42;10.43;;;4.72;;
22166;SDS011;11249;52.468;13.776;2023-05-25T12:34:16;14.70;;;5.75;;
22166;SDS011;11249;52.468;13.776;2023-05-25T12:36:48;12.93;;;4.97;;
22166;SDS011;11249;52.468;13.776;2023-05-25T12:41:54;11.55;;;4.60;;
22166;SDS011;11249;52.468;13.776;2023-05-25T12:44:26;7.43;;;4.10;;
22166;SDS011;11249;52.468;13.776;2023-05-25T12:47:13;12.05;;;3.40;;
22166;SDS011;11249;52.468;13.776;2023-05-25T12:49:47;8.65;;;4.18;;
22166;SDS011;11249;52.468;13.776;2023-05-25T12:55:24;8.95;;;4.18;;
22166;SDS011;11249;52.468;13.776;2023-05-25T12:57:53;7.97;;;3.90;;
22166;SDS011;11249;52.468;13.776;2023-05-25T13:00:25;7.80;;;3.97;;
22166;SDS011;11249;52.468;13.776;2023-05-25T13:03:02;8.77;;;4.13;;
22166;SDS011;11249;52.468;13.776;2023-05-25T13:05:31;8.43;;;3.58;;
22166;SDS011;11249;52.468;13.776;2023-05-25T13:07:59;6.75;;;3.80;;
22166;SDS011;11249;52.468;13.776;2023-05-25T13:10:27;8.05;;;3.90;;
22166;SDS011;11249;52.468;13.776;2023-05-25T13:12:55;8.75;;;3.65;;
22166;SDS011;11249;52.468;13.776;2023-05-25T13:15:23;8.20;;;3.80;;
22166;SDS011;11249;52.468;13.776;2023-05-25T13:17:52;8.50;;;4.45;;
22166;SDS011;11249;52.468;13.776;2023-05-25T13:20:20;6.53;;;4.00;;
22166;SDS011;11249;52.468;13.776;2023-05-25T13:22:48;5.90;;;3.85;;
22166;SDS011;11249;52.468;13.776;2023-05-25T13:25:16;9.60;;;4.70;;
22166;SDS011;11249;52.468;13.776;2023-05-25T13:27:45;10.15;;;4.95;;
22166;SDS011;11249;52.468;13.776;2023-05-25T13:30:14;7.97;;;3.97;;
22166;SDS011;11249;52.468;13.776;2023-05-25T13:32:41;6.97;;;4.20;;
22166;SDS011;11249;52.468;13.776;2023-05-25T13:35:10;9.85;;;4.70;;
22166;SDS011;11249;52.468;13.776;2023-05-25T13:37:46;10.45;;;4.25;;
22166;SDS011;11249;52.468;13.776;2023-05-25T13:40:13;12.63;;;5.25;;
22166;SDS011;11249;52.468;13.776;2023-05-25T13:42:40;13.10;;;4.47;;
22166;SDS011;11249;52.468;13.776;2023-05-25T13:45:07;8.50;;;4.00;;
22166;SDS011;11249;52.468;13.776;2023-05-25T13:47:34;12.07;;;4.72;;
22166;SDS011;11249;52.468;13.776;2023-05-25T13:50:01;9.40;;;4.68;;
22166;SDS011;11249;52.468;13.776;2023-05-25T13:52:27;9.60;;;4.13;;
22166;SDS011;11249;52.468;13.776;2023-05-25T13:54:54;9.60;;;5.10;;
22166;SDS011;11249;52.468;13.776;2023-05-25T13:57:21;10.25;;;4.72;;
22166;SDS011;11249;52.468;13.776;2023-05-25T13:59:48;7.72;;;4.15;;
22166;SDS011;11249;52.468;13.776;2023-05-25T14:02:14;7.03;;;4.03;;
22166;SDS011;11249;52.468;13.776;2023-05-25T14:04:41;11.88;;;5.43;;
22166;SDS011;11249;52.468;13.776;2023-05-25T14:07:08;9.95;;;4.85;;
22166;SDS011;11249;52.468;13.776;2023-05-25T14:09:36;7.38;;;4.18;;
22166;SDS011;11249;52.468;13.776;2023-05-25T14:12:03;6.82;;;4.18;;
22166;SDS011;11249;52.468;13.776;2023-05-25T14:14:29;11.73;;;4.50;;
22166;SDS011;11249;52.468;13.776;2023-05-25T14:16:58;6.45;;;3.80;;
22166;SDS011;11249;52.468;13.776;2023-05-25T14:19:26;12.52;;;4.38;;
22166;SDS011;11249;52.468;13.776;2023-05-25T14:21:53;6.80;;;4.35;;
22166;SDS011;11249;52.468;13.776;2023-05-25T14:24:23;9.30;;;4.28;;
22166;SDS011;11249;52.468;13.776;2023-05-25T14:26:50;8.63;;;3.88;;
22166;SDS011;11249;52.468;13.776;2023-05-25T14:29:16;8.95;;;4.18;;
22166;SDS011;11249;52.468;13.776;2023-05-25T14:31:43;10.93;;;4.40;;
22166;SDS011;11249;52.468;13.776;2023-05-25T14:34:11;9.85;;;4.55;;
22166;SDS011;11249;52.468;13.776;2023-05-25T14:36:37;7.95;;;4.47;;
22166;SDS011;11249;52.468;13.776;2023-05-25T14:39:04;10.57;;;4.50;;
22166;SDS011;11249;52.468;13.776;2023-05-25T14:41:31;7.03;;;3.72;;
22166;SDS011;11249;52.468;13.776;2023-05-25T14:43:58;6.70;;;3.90;;
22166;SDS011;11249;52.468;13.776;2023-05-25T14:46:24;9.45;;;4.20;;
22166;SDS011;11249;52.468;13.776;2023-05-25T14:48:52;8.70;;;5.05;;
22166;SDS011;11249;52.468;13.776;2023-05-25T14:51:18;8.23;;;4.32;;
22166;SDS011;11249;52.468;13.776;2023-05-25T14:53:45;7.18;;;4.28;;